sensor_id;sensor_type;location;lat;lon;timestamp;P1;durP1;ratioP1;P2;durP2;ratioP2
70829;SDS011;58451;51.550;7.208;2024-03-08T00:00:53;32.30;;;14.30;;
70829;SDS011;58451;51.550;7.208;2024-03-08T00:02:25;30.70;;;13.70;;
70829;SDS011;58451;51.550;7.208;2024-03-08T00:03:56;33.00;;;13.70;;
70829;SDS011;58451;51.550;7.208;2024-03-08T00:05:27;31.20;;;13.90;;
70829;SDS011;58451;51.550;7.208;2024-03-08T00:06:59;29.10;;;13.90;;
70829;SDS011;58451;51.550;7.208;2024-03-08T00:08:31;33.50;;;12.80;;
70829;SDS011;58451;51.550;7.208;2024-03-08T00:10:19;29.10;;;13.30;;
70829;SDS011;58451;51.550;7.208;2024-03-08T00:11:52;30.30;;;12.80;;
70829;SDS011;58451;51.550;7.208;2024-03-08T00:13:23;32.10;;;13.40;;
70829;SDS011;58451;51.550;7.208;2024-03-08T00:14:56;31.60;;;13.40;;
70829;SDS011;58451;51.550;7.208;2024-03-08T00:16:28;31.00;;;14.00;;
70829;SDS011;58451;51.550;7.208;2024-03-08T00:17:59;30.30;;;13.60;;
70829;SDS011;58451;51.550;7.208;2024-03-08T00:19:31;28.00;;;11.70;;
70829;SDS011;58451;51.550;7.208;2024-03-08T00:21:03;32.80;;;13.50;;
70829;SDS011;58451;51.550;7.208;2024-03-08T00:22:39;31.40;;;12.50;;
70829;SDS011;58451;51.550;7.208;2024-03-08T00:24:11;25.10;;;11.20;;
70829;SDS011;58451;51.550;7.208;2024-03-08T00:25:43;31.40;;;12.90;;
70829;SDS011;58451;51.550;7.208;2024-03-08T00:27:15;27.70;;;12.80;;
70829;SDS011;58451;51.550;7.208;2024-03-08T00:28:48;30.20;;;13.90;;
70829;SDS011;58451;51.550;7.208;2024-03-08T00:30:19;30.20;;;13.10;;
70829;SDS011;58451;51.550;7.208;2024-03-08T00:31:51;31.00;;;13.40;;
70829;SDS011;58451;51.550;7.208;2024-03-08T00:33:23;29.30;;;12.40;;
70829;SDS011;58451;51.550;7.208;2024-03-08T00:34:55;29.20;;;13.10;;
70829;SDS011;58451;51.550;7.208;2024-03-08T00:36:27;31.60;;;12.80;;
70829;SDS011;58451;51.550;7.208;2024-03-08T00:38:01;30.20;;;12.70;;
70829;SDS011;58451;51.550;7.208;2024-03-08T00:39:36;29.20;;;13.00;;
70829;SDS011;58451;51.550;7.208;2024-03-08T00:41:07;31.00;;;13.90;;
70829;SDS011;58451;51.550;7.208;2024-03-08T00:42:39;28.30;;;12.60;;
70829;SDS011;58451;51.550;7.208;2024-03-08T00:44:13;29.40;;;12.90;;
70829;SDS011;58451;51.550;7.208;2024-03-08T00:47:46;31.40;;;13.10;;
70829;SDS011;58451;51.550;7.208;2024-03-08T00:49:17;28.70;;;12.10;;
70829;SDS011;58451;51.550;7.208;2024-03-08T00:50:49;31.50;;;13.10;;
70829;SDS011;58451;51.550;7.208;2024-03-08T00:52:20;31.90;;;14.10;;
70829;SDS011;58451;51.550;7.208;2024-03-08T00:53:52;32.80;;;14.10;;
70829;SDS011;58451;51.550;7.208;2024-03-08T00:55:23;32.50;;;13.40;;
70829;SDS011;58451;51.550;7.208;2024-03-08T00:56:55;33.30;;;13.90;;
70829;SDS011;58451;51.550;7.208;2024-03-08T00:58:27;30.10;;;13.30;;
70829;SDS011;58451;51.550;7.208;2024-03-08T00:59:59;30.80;;;13.10;;
70829;SDS011;58451;51.550;7.208;2024-03-08T01:01:31;32.50;;;13.80;;
70829;SDS011;58451;51.550;7.208;2024-03-08T01:03:09;31.70;;;13.30;;
70829;SDS011;58451;51.550;7.208;2024-03-08T01:04:42;32.00;;;14.40;;
70829;SDS011;58451;51.550;7.208;2024-03-08T01:06:14;31.10;;;13.50;;
70829;SDS011;58451;51.550;7.208;2024-03-08T01:07:45;34.20;;;13.90;;
70829;SDS011;58451;51.550;7.208;2024-03-08T01:09:17;32.10;;;13.90;;
70829;SDS011;58451;51.550;7.208;2024-03-08T01:10:49;32.20;;;13.20;;
70829;SDS011;58451;51.550;7.208;2024-03-08T01:12:21;32.00;;;13.30;;
70829;SDS011;58451;51.550;7.208;2024-03-08T01:13:53;30.90;;;13.70;;
70829;SDS011;58451;51.550;7.208;2024-03-08T01:15:25;30.20;;;13.70;;
70829;SDS011;58451;51.550;7.208;2024-03-08T01:16:57;34.60;;;14.20;;
70829;SDS011;58451;51.550;7.208;2024-03-08T01:18:29;30.20;;;13.90;;
70829;SDS011;58451;51.550;7.208;2024-03-08T01:20:01;33.10;;;14.00;;
70829;SDS011;58451;51.550;7.208;2024-03-08T01:21:33;31.50;;;13.20;;
70829;SDS011;58451;51.550;7.208;2024-03-08T01:25:31;33.20;;;13.10;;
70829;SDS011;58451;51.550;7.208;2024-03-08T01:27:04;33.30;;;13.00;;
70829;SDS011;58451;51.550;7.208;2024-03-08T01:30:34;30.40;;;13.10;;
70829;SDS011;58451;51.550;7.208;2024-03-08T01:34:27;30.80;;;12.10;;
70829;SDS011;58451;51.550;7.208;2024-03-08T01:35:59;30.30;;;13.00;;
70829;SDS011;58451;51.550;7.208;2024-03-08T01:37:31;31.80;;;13.00;;
70829;SDS011;58451;51.550;7.208;2024-03-08T01:39:02;30.40;;;13.20;;
70829;SDS011;58451;51.550;7.208;2024-03-08T01:40:38;30.00;;;13.40;;
70829;SDS011;58451;51.550;7.208;2024-03-08T01:42:12;32.20;;;13.80;;
70829;SDS011;58451;51.550;7.208;2024-03-08T01:43:46;34.00;;;14.50;;
70829;SDS011;58451;51.550;7.208;2024-03-08T01:45:20;32.90;;;13.80;;
70829;SDS011;58451;51.550;7.208;2024-03-08T01:46:52;31.30;;;13.20;;
70829;SDS011;58451;51.550;7.208;2024-03-08T01:50:54;35.30;;;13.50;;
70829;SDS011;58451;51.550;7.208;2024-03-08T01:52:28;34.60;;;13.50;;
70829;SDS011;58451;51.550;7.208;2024-03-08T01:54:03;31.70;;;13.20;;
70829;SDS011;58451;51.550;7.208;2024-03-08T01:55:37;32.60;;;14.00;;
70829;SDS011;58451;51.550;7.208;2024-03-08T01:57:11;32.50;;;14.10;;
70829;SDS011;58451;51.550;7.208;2024-03-08T01:58:43;31.00;;;13.00;;
70829;SDS011;58451;51.550;7.208;2024-03-08T02:00:15;33.20;;;13.70;;
70829;SDS011;58451;51.550;7.208;2024-03-08T02:01:47;31.60;;;13.20;;
70829;SDS011;58451;51.550;7.208;2024-03-08T02:03:21;32.90;;;13.80;;
70829;SDS011;58451;51.550;7.208;2024-03-08T02:05:09;33.70;;;14.30;;
70829;SDS011;58451;51.550;7.208;2024-03-08T02:06:41;33.40;;;13.30;;
70829;SDS011;58451;51.550;7.208;2024-03-08T02:08:12;29.60;;;12.90;;
70829;SDS011;58451;51.550;7.208;2024-03-08T02:09:47;31.20;;;13.50;;
70829;SDS011;58451;51.550;7.208;2024-03-08T02:11:20;35.10;;;13.90;;
70829;SDS011;58451;51.550;7.208;2024-03-08T02:12:52;33.20;;;13.10;;
70829;SDS011;58451;51.550;7.208;2024-03-08T02:14:24;32.40;;;13.00;;
70829;SDS011;58451;51.550;7.208;2024-03-08T02:15:57;32.20;;;12.80;;
70829;SDS011;58451;51.550;7.208;2024-03-08T02:17:32;33.30;;;13.20;;
70829;SDS011;58451;51.550;7.208;2024-03-08T02:19:07;33.80;;;14.00;;
70829;SDS011;58451;51.550;7.208;2024-03-08T02:20:41;29.20;;;12.30;;
70829;SDS011;58451;51.550;7.208;2024-03-08T02:22:13;30.40;;;12.40;;
70829;SDS011;58451;51.550;7.208;2024-03-08T02:23:46;30.20;;;12.60;;
70829;SDS011;58451;51.550;7.208;2024-03-08T02:25:23;32.60;;;13.10;;
70829;SDS011;58451;51.550;7.208;2024-03-08T02:26:54;34.90;;;12.60;;
70829;SDS011;58451;51.550;7.208;2024-03-08T02:30:51;29.50;;;11.10;;
70829;SDS011;58451;51.550;7.208;2024-03-08T02:32:25;33.10;;;12.30;;
70829;SDS011;58451;51.550;7.208;2024-03-08T02:33:57;32.60;;;13.40;;
70829;SDS011;58451;51.550;7.208;2024-03-08T02:35:28;35.40;;;14.50;;
70829;SDS011;58451;51.550;7.208;2024-03-08T02:37:00;36.40;;;13.30;;
70829;SDS011;58451;51.550;7.208;2024-03-08T02:38:31;33.10;;;13.10;;
70829;SDS011;58451;51.550;7.208;2024-03-08T02:40:04;34.60;;;14.10;;
70829;SDS011;58451;51.550;7.208;2024-03-08T02:41:37;37.70;;;14.00;;
70829;SDS011;58451;51.550;7.208;2024-03-08T02:43:10;34.30;;;14.20;;
70829;SDS011;58451;51.550;7.208;2024-03-08T02:44:43;35.30;;;14.60;;
70829;SDS011;58451;51.550;7.208;2024-03-08T02:46:15;33.80;;;13.70;;
70829;SDS011;58451;51.550;7.208;2024-03-08T02:47:46;30.60;;;12.60;;
70829;SDS011;58451;51.550;7.208;2024-03-08T02:49:21;33.70;;;13.50;;
70829;SDS011;58451;51.550;7.208;2024-03-08T02:50:53;34.10;;;14.00;;
70829;SDS011;58451;51.550;7.208;2024-03-08T02:52:24;33.00;;;13.30;;
70829;SDS011;58451;51.550;7.208;2024-03-08T02:53:56;33.40;;;14.10;;
70829;SDS011;58451;51.550;7.208;2024-03-08T02:55:28;33.40;;;13.90;;
70829;SDS011;58451;51.550;7.208;2024-03-08T02:57:00;33.30;;;12.80;;
70829;SDS011;58451;51.550;7.208;2024-03-08T02:58:32;33.20;;;13.30;;
70829;SDS011;58451;51.550;7.208;2024-03-08T03:02:25;36.70;;;13.70;;
70829;SDS011;58451;51.550;7.208;2024-03-08T03:03:57;30.70;;;12.50;;
70829;SDS011;58451;51.550;7.208;2024-03-08T03:05:29;32.30;;;12.40;;
70829;SDS011;58451;51.550;7.208;2024-03-08T03:07:01;34.60;;;14.20;;
70829;SDS011;58451;51.550;7.208;2024-03-08T03:08:32;34.00;;;13.10;;
70829;SDS011;58451;51.550;7.208;2024-03-08T03:10:04;32.30;;;13.40;;
70829;SDS011;58451;51.550;7.208;2024-03-08T03:11:37;32.40;;;12.60;;
70829;SDS011;58451;51.550;7.208;2024-03-08T03:13:09;34.80;;;14.00;;
70829;SDS011;58451;51.550;7.208;2024-03-08T03:14:41;34.40;;;13.40;;
70829;SDS011;58451;51.550;7.208;2024-03-08T03:16:17;34.20;;;13.10;;
70829;SDS011;58451;51.550;7.208;2024-03-08T03:17:51;33.30;;;13.50;;
70829;SDS011;58451;51.550;7.208;2024-03-08T03:19:22;34.10;;;13.60;;
70829;SDS011;58451;51.550;7.208;2024-03-08T03:20:54;31.90;;;13.70;;
70829;SDS011;58451;51.550;7.208;2024-03-08T03:22:26;32.90;;;12.90;;
70829;SDS011;58451;51.550;7.208;2024-03-08T03:23:57;32.00;;;12.90;;
70829;SDS011;58451;51.550;7.208;2024-03-08T03:25:30;33.00;;;13.40;;
70829;SDS011;58451;51.550;7.208;2024-03-08T03:27:14;35.20;;;14.40;;
70829;SDS011;58451;51.550;7.208;2024-03-08T03:28:46;38.00;;;14.80;;
70829;SDS011;58451;51.550;7.208;2024-03-08T03:30:17;34.10;;;13.60;;
70829;SDS011;58451;51.550;7.208;2024-03-08T03:31:57;29.30;;;12.00;;
70829;SDS011;58451;51.550;7.208;2024-03-08T03:33:28;34.20;;;13.50;;
70829;SDS011;58451;51.550;7.208;2024-03-08T03:34:59;37.50;;;14.00;;
70829;SDS011;58451;51.550;7.208;2024-03-08T03:36:35;37.40;;;14.40;;
70829;SDS011;58451;51.550;7.208;2024-03-08T03:38:09;35.60;;;13.80;;
70829;SDS011;58451;51.550;7.208;2024-03-08T03:39:42;33.00;;;13.70;;
70829;SDS011;58451;51.550;7.208;2024-03-08T03:41:20;38.70;;;14.40;;
70829;SDS011;58451;51.550;7.208;2024-03-08T03:42:51;31.70;;;13.40;;
70829;SDS011;58451;51.550;7.208;2024-03-08T03:44:24;29.50;;;11.00;;
70829;SDS011;58451;51.550;7.208;2024-03-08T03:45:56;34.00;;;13.30;;
70829;SDS011;58451;51.550;7.208;2024-03-08T03:47:27;30.20;;;11.70;;
70829;SDS011;58451;51.550;7.208;2024-03-08T03:48:59;36.00;;;14.10;;
70829;SDS011;58451;51.550;7.208;2024-03-08T03:50:30;31.00;;;12.60;;
70829;SDS011;58451;51.550;7.208;2024-03-08T03:52:02;36.30;;;14.60;;
70829;SDS011;58451;51.550;7.208;2024-03-08T03:53:35;35.40;;;13.70;;
70829;SDS011;58451;51.550;7.208;2024-03-08T03:55:07;38.20;;;14.90;;
70829;SDS011;58451;51.550;7.208;2024-03-08T03:56:39;37.70;;;14.40;;
70829;SDS011;58451;51.550;7.208;2024-03-08T03:58:10;35.00;;;14.00;;
70829;SDS011;58451;51.550;7.208;2024-03-08T03:59:43;36.40;;;15.30;;
70829;SDS011;58451;51.550;7.208;2024-03-08T04:01:14;36.70;;;15.00;;
70829;SDS011;58451;51.550;7.208;2024-03-08T04:02:46;35.10;;;14.60;;
70829;SDS011;58451;51.550;7.208;2024-03-08T04:04:18;37.50;;;15.00;;
70829;SDS011;58451;51.550;7.208;2024-03-08T04:05:51;36.10;;;14.60;;
70829;SDS011;58451;51.550;7.208;2024-03-08T04:24:05;36.80;;;17.60;;
70829;SDS011;58451;51.550;7.208;2024-03-08T04:25:37;37.00;;;16.20;;
70829;SDS011;58451;51.550;7.208;2024-03-08T04:27:10;34.10;;;14.70;;
70829;SDS011;58451;51.550;7.208;2024-03-08T04:28:42;33.90;;;14.60;;
70829;SDS011;58451;51.550;7.208;2024-03-08T04:30:15;36.00;;;14.50;;
70829;SDS011;58451;51.550;7.208;2024-03-08T04:31:47;35.00;;;14.60;;
70829;SDS011;58451;51.550;7.208;2024-03-08T04:33:19;29.30;;;12.60;;
70829;SDS011;58451;51.550;7.208;2024-03-08T04:34:51;35.10;;;14.50;;
70829;SDS011;58451;51.550;7.208;2024-03-08T04:36:24;34.60;;;13.80;;
70829;SDS011;58451;51.550;7.208;2024-03-08T04:37:58;35.70;;;14.70;;
70829;SDS011;58451;51.550;7.208;2024-03-08T04:39:31;39.10;;;15.20;;
70829;SDS011;58451;51.550;7.208;2024-03-08T04:41:03;36.10;;;15.00;;
70829;SDS011;58451;51.550;7.208;2024-03-08T04:42:37;29.80;;;12.60;;
70829;SDS011;58451;51.550;7.208;2024-03-08T04:44:11;34.40;;;13.80;;
70829;SDS011;58451;51.550;7.208;2024-03-08T04:45:44;38.90;;;15.70;;
70829;SDS011;58451;51.550;7.208;2024-03-08T04:47:16;35.90;;;15.00;;
70829;SDS011;58451;51.550;7.208;2024-03-08T04:48:49;37.70;;;15.10;;
70829;SDS011;58451;51.550;7.208;2024-03-08T04:50:21;36.60;;;14.80;;
70829;SDS011;58451;51.550;7.208;2024-03-08T04:51:55;36.40;;;14.80;;
70829;SDS011;58451;51.550;7.208;2024-03-08T04:53:28;40.40;;;15.60;;
70829;SDS011;58451;51.550;7.208;2024-03-08T04:55:00;38.90;;;15.10;;
70829;SDS011;58451;51.550;7.208;2024-03-08T04:56:37;39.10;;;15.20;;
70829;SDS011;58451;51.550;7.208;2024-03-08T04:58:08;39.00;;;15.80;;
70829;SDS011;58451;51.550;7.208;2024-03-08T04:59:41;35.40;;;13.70;;
70829;SDS011;58451;51.550;7.208;2024-03-08T05:01:14;36.50;;;14.70;;
70829;SDS011;58451;51.550;7.208;2024-03-08T05:02:51;35.70;;;13.90;;
70829;SDS011;58451;51.550;7.208;2024-03-08T05:04:27;39.00;;;15.30;;
70829;SDS011;58451;51.550;7.208;2024-03-08T05:06:01;34.60;;;13.70;;
70829;SDS011;58451;51.550;7.208;2024-03-08T05:07:33;39.30;;;14.70;;
70829;SDS011;58451;51.550;7.208;2024-03-08T05:09:05;39.00;;;15.40;;
70829;SDS011;58451;51.550;7.208;2024-03-08T05:10:46;37.50;;;14.80;;
70829;SDS011;58451;51.550;7.208;2024-03-08T05:12:18;36.40;;;15.40;;
70829;SDS011;58451;51.550;7.208;2024-03-08T05:13:51;40.80;;;15.20;;
70829;SDS011;58451;51.550;7.208;2024-03-08T05:15:23;37.10;;;13.90;;
70829;SDS011;58451;51.550;7.208;2024-03-08T05:16:55;35.10;;;13.40;;
70829;SDS011;58451;51.550;7.208;2024-03-08T05:18:27;39.70;;;15.00;;
70829;SDS011;58451;51.550;7.208;2024-03-08T05:20:00;41.50;;;15.30;;
70829;SDS011;58451;51.550;7.208;2024-03-08T05:21:36;39.40;;;15.60;;
70829;SDS011;58451;51.550;7.208;2024-03-08T05:23:09;37.50;;;13.90;;
70829;SDS011;58451;51.550;7.208;2024-03-08T05:24:41;33.70;;;13.60;;
70829;SDS011;58451;51.550;7.208;2024-03-08T05:50:25;38.00;;;17.30;;
70829;SDS011;58451;51.550;7.208;2024-03-08T05:51:57;35.20;;;15.30;;
70829;SDS011;58451;51.550;7.208;2024-03-08T05:53:36;35.00;;;15.40;;
70829;SDS011;58451;51.550;7.208;2024-03-08T05:55:07;39.90;;;15.40;;
70829;SDS011;58451;51.550;7.208;2024-03-08T05:56:41;39.10;;;16.20;;
70829;SDS011;58451;51.550;7.208;2024-03-08T05:58:16;35.40;;;14.70;;
70829;SDS011;58451;51.550;7.208;2024-03-08T05:59:48;39.30;;;16.80;;
70829;SDS011;58451;51.550;7.208;2024-03-08T06:01:21;42.00;;;14.90;;
70829;SDS011;58451;51.550;7.208;2024-03-08T06:02:52;36.10;;;14.30;;
70829;SDS011;58451;51.550;7.208;2024-03-08T06:04:24;34.90;;;14.70;;
70829;SDS011;58451;51.550;7.208;2024-03-08T06:05:55;40.60;;;15.80;;
70829;SDS011;58451;51.550;7.208;2024-03-08T06:07:28;39.90;;;16.40;;
70829;SDS011;58451;51.550;7.208;2024-03-08T06:09:01;39.00;;;15.90;;
70829;SDS011;58451;51.550;7.208;2024-03-08T06:10:40;41.40;;;15.80;;
70829;SDS011;58451;51.550;7.208;2024-03-08T06:12:12;39.20;;;15.00;;
70829;SDS011;58451;51.550;7.208;2024-03-08T06:13:44;39.50;;;14.50;;
70829;SDS011;58451;51.550;7.208;2024-03-08T06:15:16;41.60;;;15.70;;
70829;SDS011;58451;51.550;7.208;2024-03-08T06:16:47;39.50;;;15.40;;
70829;SDS011;58451;51.550;7.208;2024-03-08T06:18:25;41.10;;;15.90;;
70829;SDS011;58451;51.550;7.208;2024-03-08T06:19:56;39.20;;;15.40;;
70829;SDS011;58451;51.550;7.208;2024-03-08T06:21:28;41.70;;;15.30;;
70829;SDS011;58451;51.550;7.208;2024-03-08T06:22:59;42.20;;;16.20;;
70829;SDS011;58451;51.550;7.208;2024-03-08T06:24:33;44.00;;;15.90;;
70829;SDS011;58451;51.550;7.208;2024-03-08T06:26:07;40.70;;;16.40;;
70829;SDS011;58451;51.550;7.208;2024-03-08T06:29:49;42.60;;;15.70;;
70829;SDS011;58451;51.550;7.208;2024-03-08T06:31:22;42.10;;;15.60;;
70829;SDS011;58451;51.550;7.208;2024-03-08T06:36:53;41.20;;;15.70;;
70829;SDS011;58451;51.550;7.208;2024-03-08T06:38:32;41.00;;;16.20;;
70829;SDS011;58451;51.550;7.208;2024-03-08T06:40:05;39.70;;;15.50;;
70829;SDS011;58451;51.550;7.208;2024-03-08T06:41:40;41.40;;;16.10;;
70829;SDS011;58451;51.550;7.208;2024-03-08T06:43:12;43.30;;;16.20;;
70829;SDS011;58451;51.550;7.208;2024-03-08T06:44:46;38.30;;;14.80;;
70829;SDS011;58451;51.550;7.208;2024-03-08T06:46:21;41.40;;;16.40;;
70829;SDS011;58451;51.550;7.208;2024-03-08T06:48:16;39.50;;;15.50;;
70829;SDS011;58451;51.550;7.208;2024-03-08T06:49:48;38.60;;;15.60;;
70829;SDS011;58451;51.550;7.208;2024-03-08T06:51:22;36.80;;;14.00;;
70829;SDS011;58451;51.550;7.208;2024-03-08T06:55:12;43.00;;;16.60;;
70829;SDS011;58451;51.550;7.208;2024-03-08T06:56:44;40.10;;;16.30;;
70829;SDS011;58451;51.550;7.208;2024-03-08T06:58:15;34.30;;;14.40;;
70829;SDS011;58451;51.550;7.208;2024-03-08T06:59:48;32.60;;;13.70;;
70829;SDS011;58451;51.550;7.208;2024-03-08T07:01:20;37.50;;;15.60;;
70829;SDS011;58451;51.550;7.208;2024-03-08T07:02:52;40.50;;;15.10;;
70829;SDS011;58451;51.550;7.208;2024-03-08T07:04:25;38.30;;;16.00;;
70829;SDS011;58451;51.550;7.208;2024-03-08T07:05:59;43.60;;;17.20;;
70829;SDS011;58451;51.550;7.208;2024-03-08T07:07:35;38.30;;;15.90;;
70829;SDS011;58451;51.550;7.208;2024-03-08T07:09:07;41.00;;;16.90;;
70829;SDS011;58451;51.550;7.208;2024-03-08T07:10:38;39.20;;;16.90;;
70829;SDS011;58451;51.550;7.208;2024-03-08T07:12:12;41.20;;;16.90;;
70829;SDS011;58451;51.550;7.208;2024-03-08T07:13:45;41.10;;;16.50;;
70829;SDS011;58451;51.550;7.208;2024-03-08T07:15:17;35.50;;;14.50;;
70829;SDS011;58451;51.550;7.208;2024-03-08T07:16:50;37.40;;;15.10;;
70829;SDS011;58451;51.550;7.208;2024-03-08T07:18:23;37.40;;;15.00;;
70829;SDS011;58451;51.550;7.208;2024-03-08T07:19:55;42.20;;;16.20;;
70829;SDS011;58451;51.550;7.208;2024-03-08T07:21:28;39.80;;;15.90;;
70829;SDS011;58451;51.550;7.208;2024-03-08T07:23:00;36.10;;;14.70;;
70829;SDS011;58451;51.550;7.208;2024-03-08T07:24:31;33.90;;;13.60;;
70829;SDS011;58451;51.550;7.208;2024-03-08T07:26:21;37.20;;;14.60;;
70829;SDS011;58451;51.550;7.208;2024-03-08T07:27:54;33.50;;;14.90;;
70829;SDS011;58451;51.550;7.208;2024-03-08T07:29:26;35.00;;;15.20;;
70829;SDS011;58451;51.550;7.208;2024-03-08T07:30:59;33.60;;;14.00;;
70829;SDS011;58451;51.550;7.208;2024-03-08T07:32:45;36.50;;;15.00;;
70829;SDS011;58451;51.550;7.208;2024-03-08T07:34:17;34.80;;;15.30;;
70829;SDS011;58451;51.550;7.208;2024-03-08T07:35:48;34.10;;;15.50;;
70829;SDS011;58451;51.550;7.208;2024-03-08T07:37:21;35.30;;;15.40;;
70829;SDS011;58451;51.550;7.208;2024-03-08T07:38:53;34.40;;;13.80;;
70829;SDS011;58451;51.550;7.208;2024-03-08T07:40:24;38.10;;;15.90;;
70829;SDS011;58451;51.550;7.208;2024-03-08T07:41:56;37.20;;;15.10;;
70829;SDS011;58451;51.550;7.208;2024-03-08T07:43:28;39.40;;;15.60;;
70829;SDS011;58451;51.550;7.208;2024-03-08T07:44:59;38.10;;;15.90;;
70829;SDS011;58451;51.550;7.208;2024-03-08T07:46:30;34.10;;;13.70;;
70829;SDS011;58451;51.550;7.208;2024-03-08T07:48:03;32.00;;;14.10;;
70829;SDS011;58451;51.550;7.208;2024-03-08T07:49:40;36.40;;;15.60;;
70829;SDS011;58451;51.550;7.208;2024-03-08T07:51:12;36.00;;;15.80;;
70829;SDS011;58451;51.550;7.208;2024-03-08T07:52:43;34.90;;;15.90;;
70829;SDS011;58451;51.550;7.208;2024-03-08T07:54:15;40.20;;;16.00;;
70829;SDS011;58451;51.550;7.208;2024-03-08T07:55:46;36.20;;;16.20;;
70829;SDS011;58451;51.550;7.208;2024-03-08T07:57:18;31.60;;;14.10;;
70829;SDS011;58451;51.550;7.208;2024-03-08T07:58:50;35.00;;;14.60;;
70829;SDS011;58451;51.550;7.208;2024-03-08T08:00:23;37.70;;;16.10;;
70829;SDS011;58451;51.550;7.208;2024-03-08T08:01:55;34.70;;;15.50;;
70829;SDS011;58451;51.550;7.208;2024-03-08T08:03:27;32.40;;;13.50;;
70829;SDS011;58451;51.550;7.208;2024-03-08T08:04:58;34.10;;;15.00;;
70829;SDS011;58451;51.550;7.208;2024-03-08T08:06:30;33.80;;;14.40;;
70829;SDS011;58451;51.550;7.208;2024-03-08T08:08:07;34.10;;;14.30;;
70829;SDS011;58451;51.550;7.208;2024-03-08T08:09:41;35.90;;;15.60;;
70829;SDS011;58451;51.550;7.208;2024-03-08T08:11:13;35.90;;;15.30;;
70829;SDS011;58451;51.550;7.208;2024-03-08T08:12:48;36.40;;;15.50;;
70829;SDS011;58451;51.550;7.208;2024-03-08T08:14:20;31.80;;;14.00;;
70829;SDS011;58451;51.550;7.208;2024-03-08T08:15:52;32.60;;;15.20;;
70829;SDS011;58451;51.550;7.208;2024-03-08T08:17:23;39.70;;;16.20;;
70829;SDS011;58451;51.550;7.208;2024-03-08T08:18:55;36.30;;;15.40;;
70829;SDS011;58451;51.550;7.208;2024-03-08T08:20:26;32.30;;;14.20;;
70829;SDS011;58451;51.550;7.208;2024-03-08T08:21:59;35.50;;;15.30;;
70829;SDS011;58451;51.550;7.208;2024-03-08T08:23:32;32.90;;;13.60;;
70829;SDS011;58451;51.550;7.208;2024-03-08T08:25:03;35.00;;;15.30;;
70829;SDS011;58451;51.550;7.208;2024-03-08T08:26:35;31.20;;;14.10;;
70829;SDS011;58451;51.550;7.208;2024-03-08T08:28:10;28.10;;;12.20;;
70829;SDS011;58451;51.550;7.208;2024-03-08T08:29:43;32.30;;;13.90;;
70829;SDS011;58451;51.550;7.208;2024-03-08T08:31:17;31.20;;;14.50;;
70829;SDS011;58451;51.550;7.208;2024-03-08T08:32:50;30.80;;;14.10;;
70829;SDS011;58451;51.550;7.208;2024-03-08T08:34:21;29.60;;;13.40;;
70829;SDS011;58451;51.550;7.208;2024-03-08T08:35:55;29.60;;;13.70;;
70829;SDS011;58451;51.550;7.208;2024-03-08T08:37:34;31.30;;;14.50;;
70829;SDS011;58451;51.550;7.208;2024-03-08T08:39:08;30.90;;;14.20;;
70829;SDS011;58451;51.550;7.208;2024-03-08T08:40:45;31.00;;;14.80;;
70829;SDS011;58451;51.550;7.208;2024-03-08T08:42:18;33.50;;;14.40;;
70829;SDS011;58451;51.550;7.208;2024-03-08T08:43:50;35.90;;;15.60;;
70829;SDS011;58451;51.550;7.208;2024-03-08T08:45:39;30.00;;;12.80;;
70829;SDS011;58451;51.550;7.208;2024-03-08T08:47:12;35.00;;;15.40;;
70829;SDS011;58451;51.550;7.208;2024-03-08T08:48:47;34.20;;;15.20;;
70829;SDS011;58451;51.550;7.208;2024-03-08T08:50:19;31.00;;;14.10;;
70829;SDS011;58451;51.550;7.208;2024-03-08T08:51:57;28.60;;;13.50;;
70829;SDS011;58451;51.550;7.208;2024-03-08T08:53:42;33.10;;;13.60;;
70829;SDS011;58451;51.550;7.208;2024-03-08T08:55:16;31.80;;;14.20;;
70829;SDS011;58451;51.550;7.208;2024-03-08T08:56:52;34.00;;;14.20;;
70829;SDS011;58451;51.550;7.208;2024-03-08T08:58:24;33.00;;;15.70;;
70829;SDS011;58451;51.550;7.208;2024-03-08T08:59:56;33.80;;;15.20;;
70829;SDS011;58451;51.550;7.208;2024-03-08T09:01:28;29.00;;;13.70;;
70829;SDS011;58451;51.550;7.208;2024-03-08T09:03:00;29.00;;;12.50;;
70829;SDS011;58451;51.550;7.208;2024-03-08T09:04:33;31.50;;;14.40;;
70829;SDS011;58451;51.550;7.208;2024-03-08T09:06:05;32.80;;;13.70;;
70829;SDS011;58451;51.550;7.208;2024-03-08T09:07:37;35.00;;;15.40;;
70829;SDS011;58451;51.550;7.208;2024-03-08T09:09:08;32.00;;;13.90;;
70829;SDS011;58451;51.550;7.208;2024-03-08T09:10:41;29.00;;;13.90;;
70829;SDS011;58451;51.550;7.208;2024-03-08T09:12:14;30.50;;;13.80;;
70829;SDS011;58451;51.550;7.208;2024-03-08T09:13:46;31.90;;;14.50;;
70829;SDS011;58451;51.550;7.208;2024-03-08T09:15:18;28.90;;;13.50;;
70829;SDS011;58451;51.550;7.208;2024-03-08T09:16:52;30.60;;;13.10;;
70829;SDS011;58451;51.550;7.208;2024-03-08T09:18:23;28.90;;;13.60;;
70829;SDS011;58451;51.550;7.208;2024-03-08T09:19:55;28.60;;;13.60;;
70829;SDS011;58451;51.550;7.208;2024-03-08T09:21:28;31.10;;;13.80;;
70829;SDS011;58451;51.550;7.208;2024-03-08T09:22:59;28.10;;;13.30;;
70829;SDS011;58451;51.550;7.208;2024-03-08T09:24:31;28.30;;;13.60;;
70829;SDS011;58451;51.550;7.208;2024-03-08T09:26:03;26.50;;;11.10;;
70829;SDS011;58451;51.550;7.208;2024-03-08T09:27:41;29.70;;;12.80;;
70829;SDS011;58451;51.550;7.208;2024-03-08T09:29:12;28.80;;;13.50;;
70829;SDS011;58451;51.550;7.208;2024-03-08T09:30:43;25.30;;;11.80;;
70829;SDS011;58451;51.550;7.208;2024-03-08T09:32:27;26.70;;;12.20;;
70829;SDS011;58451;51.550;7.208;2024-03-08T09:33:59;29.20;;;13.50;;
70829;SDS011;58451;51.550;7.208;2024-03-08T09:35:30;30.80;;;13.50;;
70829;SDS011;58451;51.550;7.208;2024-03-08T09:37:02;27.70;;;13.00;;
70829;SDS011;58451;51.550;7.208;2024-03-08T09:38:35;32.00;;;13.70;;
70829;SDS011;58451;51.550;7.208;2024-03-08T09:40:06;25.50;;;12.20;;
70829;SDS011;58451;51.550;7.208;2024-03-08T09:41:40;27.20;;;12.40;;
70829;SDS011;58451;51.550;7.208;2024-03-08T09:43:12;26.40;;;12.80;;
70829;SDS011;58451;51.550;7.208;2024-03-08T09:44:45;26.20;;;11.90;;
70829;SDS011;58451;51.550;7.208;2024-03-08T09:46:19;27.80;;;13.20;;
70829;SDS011;58451;51.550;7.208;2024-03-08T09:47:54;24.80;;;11.20;;
70829;SDS011;58451;51.550;7.208;2024-03-08T09:49:26;27.50;;;12.40;;
70829;SDS011;58451;51.550;7.208;2024-03-08T09:50:57;27.40;;;12.90;;
70829;SDS011;58451;51.550;7.208;2024-03-08T09:52:30;24.20;;;11.60;;
70829;SDS011;58451;51.550;7.208;2024-03-08T09:54:03;27.80;;;13.40;;
70829;SDS011;58451;51.550;7.208;2024-03-08T09:55:47;23.60;;;11.70;;
70829;SDS011;58451;51.550;7.208;2024-03-08T09:57:21;26.30;;;13.50;;
70829;SDS011;58451;51.550;7.208;2024-03-08T09:58:52;25.20;;;11.10;;
70829;SDS011;58451;51.550;7.208;2024-03-08T10:00:50;26.90;;;12.30;;
70829;SDS011;58451;51.550;7.208;2024-03-08T10:02:22;27.20;;;12.70;;
70829;SDS011;58451;51.550;7.208;2024-03-08T10:03:54;24.90;;;12.40;;
70829;SDS011;58451;51.550;7.208;2024-03-08T10:05:26;29.50;;;12.70;;
70829;SDS011;58451;51.550;7.208;2024-03-08T10:06:59;26.10;;;13.10;;
70829;SDS011;58451;51.550;7.208;2024-03-08T10:08:34;31.60;;;13.30;;
70829;SDS011;58451;51.550;7.208;2024-03-08T10:10:06;26.90;;;12.70;;